Lincoln, Michigan
Current Conditions -  °F | °C
As of 5:13 AM on Saturday 29 Nov 2014 (Local Time) from KOSC Reporting Station
Overcast Overcast  
Wind Chill: 22°   Ceiling: 6000
Heat Index: 29°   Visibility: 10mi
Dew Point: 26°   Wind: 8mph
Humidity: 86%   Direction: 180°S
Pressure: 29.93"   Gusts: NA
Location:  44.68°N, 83.41°W
Report Text: KOSC 291013Z AUTO 18007KT 10SM SCT016 OVC060 M01/M03 A2993 RMK AO2 T10151036
Loading
Personal Weather Stations






























Interactive Weather Map New forecast layout! Learn more

10-Day Weather Forecast

Advertisements
Track Severe Weather on mobile